createdAt,value
2023-01-19T00:04:40.411Z,15.50
2023-01-19T00:07:09.921Z,11.88
2023-01-19T00:09:38.846Z,11.10
2023-01-19T00:12:10.729Z,11.38
2023-01-19T00:14:38.877Z,12.57
2023-01-19T00:17:09.678Z,11.35
2023-01-19T00:19:37.980Z,13.23
2023-01-19T00:22:13.502Z,11.48
2023-01-19T00:24:41.820Z,10.48
2023-01-19T00:27:14.162Z,10.57
2023-01-19T00:29:46.979Z,10.05
2023-01-19T00:32:15.076Z,10.63
2023-01-19T00:34:49.678Z,14.68
2023-01-19T00:37:20.779Z,9.45
2023-01-19T00:39:49.073Z,11.43
2023-01-19T00:42:34.797Z,11.52
2023-01-19T00:45:02.916Z,10.63
2023-01-19T00:47:32.238Z,10.38
2023-01-19T00:50:03.414Z,13.38
2023-01-19T00:52:33.388Z,11.18
2023-01-19T00:55:01.339Z,12.15
2023-01-19T00:57:30.161Z,8.88
2023-01-19T01:00:12.268Z,7.97
2023-01-19T01:02:44.015Z,8.98
2023-01-19T01:05:16.985Z,13.68
2023-01-19T01:07:49.605Z,12.70
2023-01-19T01:10:20.202Z,7.93
2023-01-19T01:12:56.415Z,9.38
2023-01-19T01:15:29.758Z,11.35
2023-01-19T01:18:03.476Z,13.32
2023-01-19T01:20:36.239Z,10.32
2023-01-19T01:23:11.931Z,10.68
2023-01-19T01:25:39.920Z,10.82
2023-01-19T01:28:09.501Z,12.63
2023-01-19T01:30:41.253Z,10.10
2023-01-19T01:33:11.727Z,11.05
2023-01-19T01:35:40.973Z,10.57
2023-01-19T01:38:10.907Z,11.93
2023-01-19T01:40:43.701Z,10.27
2023-01-19T01:43:15.759Z,14.93
2023-01-19T01:45:44.119Z,10.57
2023-01-19T01:48:21.316Z,8.98
2023-01-19T01:51:12.306Z,9.98
2023-01-19T01:53:44.611Z,11.88
2023-01-19T01:56:19.128Z,9.52
2023-01-19T01:58:47.701Z,10.85
2023-01-19T02:01:35.487Z,10.63
2023-01-19T02:04:03.783Z,11.60
2023-01-19T02:06:34.153Z,10.60
2023-01-19T02:09:24.818Z,12.10
2023-01-19T02:12:10.443Z,11.38
2023-01-19T02:14:38.746Z,9.05
2023-01-19T02:17:09.108Z,11.20
2023-01-19T02:19:44.429Z,10.50
2023-01-19T02:22:20.192Z,12.82
2023-01-19T02:24:52.306Z,13.65
2023-01-19T02:27:25.347Z,12.27
2023-01-19T02:29:53.667Z,10.88
2023-01-19T02:32:22.004Z,9.13
2023-01-19T02:34:50.218Z,12.38
2023-01-19T02:37:21.932Z,12.07
2023-01-19T02:40:01.845Z,10.07
2023-01-19T02:42:37.304Z,12.82
2023-01-19T02:45:10.180Z,11.27
2023-01-19T02:47:47.128Z,13.73
2023-01-19T02:50:41.754Z,9.93
2023-01-19T02:53:25.574Z,14.27
2023-01-19T02:56:02.697Z,11.85
2023-01-19T02:58:45.978Z,10.80
2023-01-19T03:01:23.121Z,12.00
2023-01-19T03:03:57.880Z,12.80
2023-01-19T03:06:37.746Z,11.40
2023-01-19T03:09:13.951Z,12.18
2023-01-19T03:11:53.870Z,15.10
2023-01-19T03:14:29.341Z,11.35
2023-01-19T03:17:01.091Z,10.65
2023-01-19T03:19:35.041Z,13.40
2023-01-19T03:22:06.683Z,9.88
2023-01-19T03:24:43.191Z,10.95
2023-01-19T03:27:19.994Z,13.13
2023-01-19T03:29:55.073Z,14.63
2023-01-19T03:32:30.260Z,12.45
2023-01-19T03:35:08.634Z,10.43
2023-01-19T03:37:47.221Z,11.27
2023-01-19T03:40:18.733Z,12.13
2023-01-19T03:42:50.513Z,13.52
2023-01-19T03:45:28.291Z,11.02
2023-01-19T03:47:57.291Z,11.65
2023-01-19T03:50:30.685Z,12.98
2023-01-19T03:53:09.988Z,16.08
2023-01-19T03:55:40.413Z,10.48
2023-01-19T03:58:10.430Z,13.60
2023-01-19T04:00:38.642Z,11.20
2023-01-19T04:03:10.518Z,11.30
2023-01-19T04:05:41.251Z,11.63
2023-01-19T04:08:09.360Z,11.55
2023-01-19T04:10:44.479Z,11.80
2023-01-19T04:13:15.953Z,12.52
2023-01-19T04:15:46.765Z,12.27
2023-01-19T04:18:15.100Z,11.45
2023-01-19T04:20:43.179Z,11.65
2023-01-19T04:23:11.156Z,12.48
2023-01-19T04:25:39.131Z,12.05
2023-01-19T04:28:09.403Z,12.52
2023-01-19T04:30:38.959Z,15.23
2023-01-19T04:33:07.096Z,11.55
2023-01-19T04:35:37.837Z,9.25
2023-01-19T04:38:05.855Z,13.98
2023-01-19T04:40:36.087Z,11.15
2023-01-19T04:43:06.555Z,9.07
2023-01-19T04:45:36.709Z,10.98
2023-01-19T04:48:07.781Z,17.55
2023-01-19T04:50:37.696Z,12.23
2023-01-19T04:53:05.745Z,13.02
2023-01-19T04:55:34.013Z,10.38
2023-01-19T04:58:02.097Z,11.70
2023-01-19T05:00:32.630Z,14.57
2023-01-19T05:03:01.645Z,13.82
2023-01-19T05:05:33.128Z,10.82
2023-01-19T05:08:01.594Z,12.30
2023-01-19T05:10:30.555Z,12.90
2023-01-19T05:12:58.721Z,13.32
2023-01-19T05:15:26.904Z,11.30
2023-01-19T05:17:55.252Z,12.30
2023-01-19T05:20:23.224Z,12.73
2023-01-19T05:22:54.719Z,14.93
2023-01-19T05:25:22.744Z,13.45
2023-01-19T05:27:50.701Z,10.90
2023-01-19T05:30:20.515Z,12.15
2023-01-19T05:32:48.653Z,11.73
2023-01-19T05:35:27.797Z,12.52
2023-01-19T05:38:01.905Z,13.00
2023-01-19T05:40:29.877Z,13.23
2023-01-19T05:43:01.128Z,12.27
2023-01-19T05:45:29.753Z,11.65
2023-01-19T05:48:02.652Z,9.55
2023-01-19T05:53:00.556Z,12.15
2023-01-19T05:55:31.353Z,10.02
2023-01-19T05:57:59.338Z,12.15
2023-01-19T06:00:27.759Z,13.55
2023-01-19T06:03:05.024Z,10.98
2023-01-19T06:05:34.028Z,14.07
2023-01-19T06:08:03.742Z,12.25
2023-01-19T06:10:32.802Z,12.40
2023-01-19T06:13:07.303Z,12.20
2023-01-19T06:15:38.145Z,11.45
2023-01-19T06:18:08.591Z,9.27
2023-01-19T06:23:21.748Z,10.90
2023-01-19T06:25:53.074Z,9.82
2023-01-19T06:28:21.251Z,9.80
2023-01-19T06:30:50.275Z,10.48
2023-01-19T06:33:32.156Z,12.55
2023-01-19T06:36:08.095Z,9.30
2023-01-19T06:38:37.610Z,10.43
2023-01-19T06:41:22.522Z,10.45
2023-01-19T06:43:51.183Z,9.25
2023-01-19T06:46:34.949Z,10.23
2023-01-19T06:49:03.241Z,9.25
2023-01-19T06:51:33.972Z,8.63
2023-01-19T06:54:03.481Z,9.68
2023-01-19T06:56:31.613Z,8.15
2023-01-19T06:58:59.693Z,9.13
2023-01-19T07:01:29.701Z,8.70
2023-01-19T07:04:06.771Z,10.60
2023-01-19T07:06:35.179Z,8.43
2023-01-19T07:09:10.191Z,11.10
2023-01-19T07:11:40.986Z,18.48
2023-01-19T07:14:08.976Z,10.10
2023-01-19T07:16:37.120Z,9.90
2023-01-19T07:19:11.836Z,9.95
2023-01-19T07:21:42.429Z,11.10
2023-01-19T07:24:11.784Z,8.00
2023-01-19T07:26:40.216Z,11.63
2023-01-19T07:29:08.163Z,10.75
2023-01-19T07:31:36.827Z,13.30
2023-01-19T07:34:05.619Z,11.45
2023-01-19T07:36:35.959Z,8.73
2023-01-19T07:39:03.900Z,8.85
2023-01-19T07:51:37.643Z,9.32
2023-01-19T07:54:05.749Z,9.40
2023-01-19T07:56:41.505Z,17.52
2023-01-19T07:59:33.631Z,10.75
2023-01-19T08:10:22.727Z,11.80
2023-01-19T08:13:15.508Z,8.80
2023-01-19T08:15:43.836Z,10.02
2023-01-19T08:18:14.845Z,13.82
2023-01-19T08:20:51.517Z,13.48
2023-01-19T08:23:19.756Z,13.52
2023-01-19T08:25:50.165Z,9.48
2023-01-19T08:28:35.475Z,12.95
2023-01-19T08:31:18.324Z,17.35
2023-01-19T08:33:49.606Z,17.75
2023-01-19T08:36:17.630Z,21.17
2023-01-19T08:38:45.779Z,17.88
2023-01-19T08:43:58.471Z,19.42
2023-01-19T08:46:28.822Z,17.08
2023-01-19T08:48:56.729Z,17.30
2023-01-19T08:51:25.872Z,12.43
2023-01-19T08:53:53.694Z,19.25
2023-01-19T08:56:28.246Z,12.95
2023-01-19T08:59:08.077Z,19.70
2023-01-19T09:01:38.224Z,16.95
2023-01-19T09:04:06.822Z,15.27
2023-01-19T09:06:34.782Z,11.40
2023-01-19T09:09:04.839Z,13.90
2023-01-19T09:11:44.309Z,12.70
2023-01-19T09:14:18.228Z,14.68
2023-01-19T09:16:46.005Z,11.48
2023-01-19T09:19:14.193Z,12.82
2023-01-19T09:21:42.192Z,12.55
2023-01-19T09:24:12.980Z,14.45
2023-01-19T09:30:15.241Z,9.30
2023-01-19T09:32:48.694Z,12.05
2023-01-19T09:35:17.267Z,13.50
2023-01-19T09:37:47.402Z,13.18
2023-01-19T09:40:20.249Z,10.38
2023-01-19T09:42:54.544Z,9.00
2023-01-19T09:45:33.409Z,9.25
2023-01-19T09:48:06.525Z,11.73
2023-01-19T09:50:40.139Z,9.75
2023-01-19T09:53:24.431Z,10.80
2023-01-19T09:55:52.378Z,14.88
2023-01-19T09:58:23.898Z,12.75
2023-01-19T10:01:00.231Z,11.35
2023-01-19T10:03:28.111Z,15.05
2023-01-19T10:06:03.662Z,9.43
2023-01-19T10:08:38.144Z,12.23
2023-01-19T10:11:17.201Z,17.33
2023-01-19T10:13:51.871Z,15.27
2023-01-19T10:16:31.584Z,11.70
2023-01-19T10:19:04.088Z,16.42
2023-01-19T10:21:35.933Z,13.77
2023-01-19T10:24:07.778Z,14.00
2023-01-19T10:26:44.036Z,13.98
2023-01-19T10:29:23.050Z,12.57
2023-01-19T10:31:53.941Z,15.18
2023-01-19T10:34:23.678Z,13.10
2023-01-19T10:37:05.845Z,11.73
2023-01-19T10:39:38.860Z,10.20
2023-01-19T10:42:14.038Z,8.98
2023-01-19T10:44:45.860Z,11.35
2023-01-19T10:47:22.914Z,11.13
2023-01-19T10:49:54.197Z,11.90
2023-01-19T10:52:30.053Z,12.75
2023-01-19T10:54:59.612Z,10.75
2023-01-19T10:57:33.103Z,11.07
2023-01-19T11:00:01.165Z,14.40
2023-01-19T11:02:32.204Z,10.15
2023-01-19T11:05:01.962Z,11.07
2023-01-19T11:07:32.662Z,10.73
2023-01-19T11:10:24.096Z,10.00
2023-01-19T11:13:15.823Z,11.90
2023-01-19T11:15:48.022Z,10.20
2023-01-19T11:18:32.708Z,11.60
2023-01-19T11:21:06.531Z,11.55
2023-01-19T11:23:39.403Z,11.27
2023-01-19T11:26:07.551Z,13.38
2023-01-19T11:28:39.031Z,11.90
2023-01-19T11:31:29.185Z,13.15
2023-01-19T11:34:00.494Z,10.60
2023-01-19T11:36:30.768Z,11.77
2023-01-19T11:39:10.255Z,11.07
2023-01-19T11:48:57.523Z,11.38
2023-01-19T11:51:43.159Z,12.50
2023-01-19T11:54:28.367Z,14.48
2023-01-19T11:57:05.987Z,12.88
2023-01-19T11:59:45.234Z,10.05
2023-01-19T12:02:46.522Z,11.13
2023-01-19T12:05:20.911Z,11.95
2023-01-19T12:07:55.756Z,11.02
2023-01-19T12:10:32.033Z,12.77
2023-01-19T12:13:07.722Z,11.10
2023-01-19T12:16:08.051Z,10.63
2023-01-19T12:19:00.777Z,14.27
2023-01-19T12:22:14.477Z,11.90
2023-01-19T12:24:50.993Z,11.55
2023-01-19T12:27:33.766Z,10.98
2023-01-19T12:30:02.086Z,11.07
2023-01-19T12:32:38.856Z,14.88
2023-01-19T12:35:28.123Z,12.07
2023-01-19T12:37:58.099Z,13.88
2023-01-19T12:40:31.452Z,12.90
2023-01-19T12:43:02.195Z,17.67
2023-01-19T12:45:34.887Z,18.95
2023-01-19T12:48:05.379Z,18.27
2023-01-19T12:50:37.859Z,17.17
2023-01-19T12:53:22.522Z,17.30
2023-01-19T12:56:01.519Z,11.93
2023-01-19T12:58:29.924Z,13.57
2023-01-19T13:01:13.748Z,13.82
2023-01-19T13:03:50.147Z,15.35
2023-01-19T13:06:19.988Z,18.58
2023-01-19T13:09:00.389Z,15.93
2023-01-19T13:11:34.296Z,12.82
2023-01-19T13:14:34.995Z,11.93
2023-01-19T13:17:18.254Z,15.88
2023-01-19T13:19:52.807Z,14.25
2023-01-19T13:23:03.972Z,12.18
2023-01-19T13:25:36.856Z,14.90
2023-01-19T13:30:55.346Z,14.63
2023-01-19T13:33:29.204Z,12.57
2023-01-19T13:35:59.708Z,18.15
2023-01-19T13:38:29.074Z,12.05
2023-01-19T13:40:59.704Z,14.65
2023-01-19T13:43:36.340Z,12.95
2023-01-19T13:46:04.775Z,13.23
2023-01-19T13:48:33.627Z,13.02
2023-01-19T13:51:05.884Z,13.82
2023-01-19T13:53:34.706Z,12.65
2023-01-19T13:56:20.711Z,12.95
2023-01-19T13:59:13.010Z,15.63
2023-01-19T14:01:46.214Z,11.73
2023-01-19T14:04:33.056Z,18.83
2023-01-19T14:07:04.042Z,16.10
2023-01-19T14:09:31.936Z,13.45
2023-01-19T14:12:17.641Z,14.15
2023-01-19T14:14:48.325Z,9.45
2023-01-19T14:17:24.659Z,11.25
2023-01-19T14:19:54.055Z,10.52
2023-01-19T14:22:22.376Z,10.25
2023-01-19T14:24:50.520Z,11.43
2023-01-19T14:27:21.475Z,13.70
2023-01-19T14:29:53.830Z,11.52
2023-01-19T14:32:24.616Z,14.38
2023-01-19T14:34:54.878Z,13.07
2023-01-19T14:37:26.534Z,11.40
2023-01-19T14:39:59.129Z,11.38
2023-01-19T14:42:32.960Z,13.32
2023-01-19T14:45:04.788Z,11.68
2023-01-19T14:47:36.854Z,13.15
2023-01-19T14:50:10.980Z,12.93
2023-01-19T14:52:41.850Z,9.45
2023-01-19T14:55:36.242Z,14.20
2023-01-19T14:58:13.425Z,11.02
2023-01-19T15:00:45.790Z,10.32
2023-01-19T15:03:14.798Z,12.80
2023-01-19T15:05:45.271Z,12.50
2023-01-19T15:08:17.679Z,11.73
2023-01-19T15:10:53.567Z,11.35
2023-01-19T15:13:23.829Z,12.10
2023-01-19T15:15:53.312Z,11.95
2023-01-19T15:18:27.310Z,13.93
2023-01-19T15:21:04.291Z,11.15
2023-01-19T15:23:32.552Z,16.30
2023-01-19T15:26:01.612Z,12.63
2023-01-19T15:28:30.600Z,11.13
2023-01-19T15:31:00.972Z,15.13
2023-01-19T15:33:31.317Z,13.30
2023-01-19T15:35:59.665Z,14.10
2023-01-19T15:38:27.810Z,13.88
2023-01-19T15:44:34.446Z,14.88
2023-01-19T15:48:00.209Z,16.77
2023-01-19T15:50:29.647Z,16.08
2023-01-19T15:53:02.882Z,16.13
2023-01-19T15:55:30.596Z,14.10
2023-01-19T15:58:01.631Z,13.13
2023-01-19T16:00:30.161Z,16.90
2023-01-19T16:02:58.294Z,16.73
2023-01-19T16:05:37.630Z,20.35
2023-01-19T16:08:11.844Z,17.63
2023-01-19T16:10:40.455Z,19.83
2023-01-19T16:13:08.777Z,22.58
2023-01-19T16:15:37.010Z,24.88
2023-01-19T16:18:05.146Z,55.60
2023-01-19T16:20:33.294Z,51.30
2023-01-19T16:23:19.045Z,34.13
2023-01-19T16:25:56.272Z,26.35
2023-01-19T16:28:24.380Z,23.88
2023-01-19T16:30:52.779Z,19.15
2023-01-19T16:33:21.882Z,19.95
2023-01-19T16:35:50.033Z,18.92
2023-01-19T16:38:20.663Z,24.92
2023-01-19T16:40:50.154Z,26.60
2023-01-19T16:43:18.677Z,31.92
2023-01-19T16:46:01.057Z,33.47
2023-01-19T16:48:32.344Z,28.77
2023-01-19T16:51:07.489Z,40.70
2023-01-19T16:53:37.239Z,25.77
2023-01-19T16:56:08.256Z,22.33
2023-01-19T16:58:39.440Z,24.42
2023-01-19T17:01:09.153Z,16.60
2023-01-19T17:03:40.864Z,21.35
2023-01-19T17:06:11.434Z,17.63
2023-01-19T17:08:41.052Z,19.05
2023-01-19T17:11:23.073Z,21.38
2023-01-19T17:13:58.009Z,25.00
2023-01-19T17:17:10.044Z,22.20
2023-01-19T17:19:41.009Z,22.52
2023-01-19T17:22:09.006Z,23.95
2023-01-19T17:24:42.354Z,20.63
2023-01-19T17:27:12.778Z,21.73
2023-01-19T17:29:40.818Z,20.00
2023-01-19T17:32:08.880Z,23.35
2023-01-19T17:34:36.919Z,26.15
2023-01-19T17:37:04.885Z,28.73
2023-01-19T17:39:33.765Z,28.90
2023-01-19T17:42:01.601Z,26.20
2023-01-19T17:44:30.927Z,23.23
2023-01-19T17:47:00.028Z,24.58
2023-01-19T17:49:30.219Z,34.70
2023-01-19T17:51:59.356Z,28.13
2023-01-19T17:54:27.134Z,35.72
2023-01-19T17:56:56.258Z,32.53
2023-01-19T17:59:24.159Z,34.05
2023-01-19T18:01:53.828Z,27.52
2023-01-19T18:04:32.532Z,30.60
2023-01-19T18:07:05.764Z,23.90
2023-01-19T18:09:36.769Z,26.70
2023-01-19T18:12:04.934Z,21.38
2023-01-19T18:14:32.688Z,20.48
2023-01-19T18:17:01.818Z,17.27
2023-01-19T18:19:29.830Z,26.30
2023-01-19T18:22:02.377Z,22.98
2023-01-19T18:24:36.282Z,32.58
2023-01-19T18:27:04.302Z,20.35
2023-01-19T18:29:35.318Z,21.45
2023-01-19T18:32:06.473Z,26.77
2023-01-19T18:34:34.526Z,19.88
2023-01-19T18:37:02.542Z,23.40
2023-01-19T18:39:31.187Z,24.92
2023-01-19T18:42:02.957Z,20.85
2023-01-19T18:44:32.518Z,17.83
2023-01-19T18:47:01.478Z,21.90
2023-01-19T18:49:31.067Z,19.52
2023-01-19T18:51:59.202Z,25.02
2023-01-19T18:54:32.360Z,23.52
2023-01-19T18:57:02.878Z,27.63
2023-01-19T18:59:33.374Z,20.65
2023-01-19T19:02:01.750Z,21.90
2023-01-19T19:04:31.254Z,21.27
2023-01-19T19:06:59.379Z,17.25
2023-01-19T19:09:38.816Z,18.60
2023-01-19T19:12:09.697Z,46.20
2023-01-19T19:14:37.796Z,39.22
2023-01-19T19:17:10.991Z,39.70
2023-01-19T19:19:40.560Z,32.40
2023-01-19T19:22:10.798Z,30.17
2023-01-19T19:24:40.496Z,30.17
2023-01-19T19:27:14.025Z,25.55
2023-01-19T19:29:46.400Z,28.17
2023-01-19T19:32:24.698Z,28.35
2023-01-19T19:35:01.608Z,27.50
2023-01-19T19:37:30.377Z,27.65
2023-01-19T19:40:14.411Z,30.25
2023-01-19T19:42:42.710Z,39.00
2023-01-19T19:45:14.913Z,35.47
2023-01-19T19:47:46.429Z,25.92
2023-01-19T19:50:17.248Z,20.73
2023-01-19T19:52:45.320Z,17.55
2023-01-19T19:55:13.612Z,23.30
2023-01-19T19:57:47.360Z,29.77
2023-01-19T20:00:17.728Z,32.28
2023-01-19T20:02:45.518Z,35.85
2023-01-19T20:05:32.711Z,27.58
2023-01-19T20:08:00.817Z,27.67
2023-01-19T20:10:29.966Z,24.52
2023-01-19T20:13:01.539Z,25.15
2023-01-19T20:15:32.442Z,27.27
2023-01-19T20:18:03.781Z,20.98
2023-01-19T20:20:33.141Z,18.92
2023-01-19T20:23:04.692Z,26.45
2023-01-19T20:25:40.487Z,28.63
2023-01-19T20:28:08.485Z,32.83
2023-01-19T20:30:39.403Z,32.58
2023-01-19T20:33:10.433Z,30.83
2023-01-19T20:35:41.099Z,23.95
2023-01-19T20:38:14.076Z,20.10
2023-01-19T20:43:09.678Z,26.23
2023-01-19T20:45:37.484Z,20.77
2023-01-19T20:48:05.858Z,22.05
2023-01-19T20:50:36.961Z,35.85
2023-01-19T20:53:06.367Z,29.67
2023-01-19T20:55:34.160Z,26.73
2023-01-19T20:58:02.016Z,23.77
2023-01-19T21:00:31.771Z,25.23
2023-01-19T21:03:08.324Z,29.33
2023-01-19T21:05:38.791Z,21.30
2023-01-19T21:08:14.453Z,24.25
2023-01-19T21:10:46.226Z,28.48
2023-01-19T21:13:26.327Z,31.10
2023-01-19T21:15:55.890Z,26.13
2023-01-19T21:18:26.488Z,29.20
2023-01-19T21:20:54.625Z,32.47
2023-01-19T21:23:26.320Z,27.70
2023-01-19T21:25:55.634Z,30.30
2023-01-19T21:28:24.228Z,26.50
2023-01-19T21:30:53.343Z,22.65
2023-01-19T21:33:22.627Z,25.52
2023-01-19T21:35:54.279Z,25.42
2023-01-19T21:38:27.125Z,25.27
2023-01-19T21:40:57.869Z,22.30
2023-01-19T21:43:26.686Z,22.70
2023-01-19T21:45:54.571Z,21.90
2023-01-19T21:48:22.492Z,23.80
2023-01-19T21:50:57.896Z,18.52
2023-01-19T21:53:29.081Z,19.52
2023-01-19T21:55:57.041Z,25.98
2023-01-19T21:58:24.928Z,26.70
2023-01-19T22:00:59.224Z,24.88
2023-01-19T22:03:27.326Z,23.48
2023-01-19T22:05:57.576Z,25.85
2023-01-19T22:08:25.562Z,20.67
2023-01-19T22:10:54.781Z,25.25
2023-01-19T22:13:22.604Z,17.58
2023-01-19T22:15:50.366Z,17.70
2023-01-19T22:18:18.594Z,16.73
2023-01-19T22:20:46.386Z,16.00
2023-01-19T22:23:14.338Z,15.20
2023-01-19T22:25:44.126Z,14.75
2023-01-19T22:28:15.970Z,16.10
2023-01-19T22:30:43.861Z,18.00
2023-01-19T22:33:14.938Z,19.08
2023-01-19T22:35:42.886Z,30.08
2023-01-19T22:38:18.654Z,23.85
2023-01-19T22:40:46.502Z,21.27
2023-01-19T22:43:15.634Z,23.02
2023-01-19T22:45:44.060Z,20.38
2023-01-19T22:48:13.223Z,18.38
2023-01-19T22:50:43.390Z,19.00
2023-01-19T22:53:11.266Z,18.45
2023-01-19T22:55:39.219Z,23.73
2023-01-19T22:58:07.197Z,22.67
2023-01-19T23:00:36.552Z,18.67
2023-01-19T23:03:04.527Z,19.70
2023-01-19T23:05:36.325Z,21.02
2023-01-19T23:08:04.460Z,19.92
2023-01-19T23:10:33.201Z,18.33
2023-01-19T23:13:00.999Z,13.80
2023-01-19T23:15:28.832Z,14.23
2023-01-19T23:17:58.020Z,13.82
2023-01-19T23:20:25.824Z,12.80
2023-01-19T23:22:53.674Z,14.02
2023-01-19T23:25:21.585Z,12.40
2023-01-19T23:27:49.464Z,17.88
2023-01-19T23:30:19.325Z,17.83
2023-01-19T23:32:50.869Z,11.70
2023-01-19T23:35:20.008Z,10.93
2023-01-19T23:37:47.970Z,17.98
2023-01-19T23:40:16.333Z,18.98
2023-01-19T23:42:44.141Z,18.80
2023-01-19T23:45:12.559Z,24.17
2023-01-19T23:47:43.268Z,20.85
2023-01-19T23:50:13.070Z,14.23
2023-01-19T23:52:42.433Z,14.15
2023-01-19T23:55:11.498Z,14.02
2023-01-19T23:57:39.787Z,11.60
